Time;durP1;ratioP1;P1;durP2;ratioP2;P2;SDS_P1;SDS_P2;PMS_P1;PMS_P2;Temp;Humidity;BMP_temperature;BMP_pressure;BME280_temperature;BME280_humidity;BME280_pressure;Samples;Min_cycle;Max_cycle;Signal;HPM_P1;HPM_P2
2023/08/12 00:02:08;;;;;;;3.83;3.53;;;20.50;99.90;;;;;;5107063;27;20250;-55
2023/08/12 00:04:34;;;;;;;4.30;3.90;;;20.50;99.90;;;;;;5107212;27;20318;-55
2023/08/12 00:06:59;;;;;;;4.10;3.70;;;20.40;99.90;;;;;;5103887;27;20649;-55
2023/08/12 00:09:24;;;;;;;4.87;3.77;;;20.40;99.90;;;;;;5084296;28;20675;-55
2023/08/12 00:11:50;;;;;;;4.67;3.83;;;20.40;99.90;;;;;;5107395;27;20223;-55
2023/08/12 00:14:15;;;;;;;3.93;3.50;;;20.40;99.90;;;;;;5105360;27;20202;-55
2023/08/12 00:16:41;;;;;;;7.37;4.10;;;20.40;99.90;;;;;;5110758;27;20196;-55
2023/08/12 00:19:08;;;;;;;4.50;4.10;;;20.40;99.90;;;;;;5106618;27;20314;-55
2023/08/12 00:21:33;;;;;;;4.07;3.57;;;20.30;99.90;;;;;;5103923;27;20302;-55
2023/08/12 00:23:59;;;;;;;3.83;3.43;;;20.30;99.90;;;;;;5111798;27;20730;-56
2023/08/12 00:26:24;;;;;;;7.67;3.77;;;20.30;99.90;;;;;;5106131;27;20810;-56
2023/08/12 00:28:50;;;;;;;3.77;3.47;;;20.30;99.90;;;;;;5108273;27;20198;-56
2023/08/12 00:31:15;;;;;;;4.47;3.47;;;20.30;99.90;;;;;;5100862;28;20291;-56
2023/08/12 00:33:41;;;;;;;4.40;4.00;;;20.30;99.90;;;;;;5112944;27;20200;-55
2023/08/12 00:36:06;;;;;;;4.10;3.27;;;20.20;99.90;;;;;;5101858;27;20204;-56
2023/08/12 00:38:32;;;;;;;4.37;3.50;;;20.20;99.90;;;;;;5102651;27;20195;-56
2023/08/12 00:40:58;;;;;;;8.13;3.57;;;20.20;99.90;;;;;;5107180;27;20215;-55
2023/08/12 00:43:23;;;;;;;3.63;3.37;;;20.20;99.90;;;;;;5109125;27;20237;-56
2023/08/12 00:45:49;;;;;;;3.60;3.30;;;20.20;99.90;;;;;;5098602;27;20701;-56
2023/08/12 00:48:16;;;;;;;3.13;2.83;;;20.20;99.90;;;;;;5107907;27;20194;-58
2023/08/12 00:50:42;;;;;;;4.53;3.70;;;20.20;99.90;;;;;;5110170;27;20210;-55
2023/08/12 00:53:08;;;;;;;5.10;3.67;;;20.10;99.90;;;;;;5117523;27;20547;-55
2023/08/12 00:55:34;;;;;;;4.00;3.60;;;20.10;99.90;;;;;;5099637;27;20268;-56
2023/08/12 00:58:01;;;;;;;3.53;3.23;;;20.10;99.90;;;;;;5108765;27;20204;-56
2023/08/12 01:00:26;;;;;;;6.93;3.57;;;20.00;99.90;;;;;;5094827;27;20206;-56
2023/08/12 01:02:53;;;;;;;3.80;3.50;;;20.00;99.90;;;;;;5103391;27;20194;-55
2023/08/12 01:05:20;;;;;;;4.33;3.50;;;20.10;99.90;;;;;;5103200;27;20219;-55
2023/08/12 01:07:46;;;;;;;3.90;3.43;;;20.10;99.90;;;;;;5094013;27;20194;-55
2023/08/12 01:10:15;;;;;;;4.10;3.43;;;20.00;99.90;;;;;;5107562;27;20195;-56
2023/08/12 01:12:49;;;;;;;3.40;3.07;;;20.00;99.90;;;;;;5109798;27;20234;-57
2023/08/12 01:15:21;;;;;;;9.20;6.67;;;20.00;99.90;;;;;;5091204;28;20187;-56
2023/08/12 01:17:51;;;;;;;3.93;3.53;;;20.00;99.90;;;;;;5097607;28;20212;-56
2023/08/12 01:20:24;;;;;;;4.77;3.33;;;20.00;99.90;;;;;;5107633;27;20748;-56
2023/08/12 01:22:56;;;;;;;3.00;2.77;;;19.90;99.90;;;;;;5092426;28;20191;-55
2023/08/12 01:25:23;;;;;;;3.37;3.07;;;19.90;99.90;;;;;;5101965;28;20851;-56
2023/08/12 01:27:49;;;;;;;3.23;2.80;;;19.90;99.90;;;;;;5108609;27;20188;-55
2023/08/12 01:30:15;;;;;;;3.90;2.80;;;19.90;99.90;;;;;;5104726;27;20248;-59
2023/08/12 01:32:59;;;;;;;3.23;2.93;;;19.90;99.90;;;;;;5105340;27;20224;-58
2023/08/12 01:35:43;;;;;;;4.70;2.97;;;19.90;99.90;;;;;;5105722;27;20677;-56
2023/08/12 01:38:10;;;;;;;3.33;2.93;;;19.90;99.90;;;;;;5105418;27;20236;-55
2023/08/12 01:40:39;;;;;;;2.97;2.47;;;19.90;99.90;;;;;;5103714;28;20954;-55
2023/08/12 01:43:04;;;;;;;3.60;2.80;;;19.90;99.90;;;;;;5102886;27;20203;-55
2023/08/12 01:45:31;;;;;;;5.33;3.47;;;19.90;99.90;;;;;;5096573;27;20191;-55
2023/08/12 01:47:57;;;;;;;3.10;2.80;;;19.90;99.90;;;;;;5105409;27;20203;-54
2023/08/12 01:50:23;;;;;;;2.97;2.77;;;19.80;99.90;;;;;;5104652;27;20221;-54
2023/08/12 01:52:48;;;;;;;4.13;2.70;;;19.80;99.90;;;;;;5107808;27;20280;-54
2023/08/12 01:55:14;;;;;;;3.90;3.33;;;19.80;99.90;;;;;;5114175;27;20204;-55
2023/08/12 01:57:39;;;;;;;4.87;3.03;;;19.80;99.90;;;;;;5109496;27;20194;-56
2023/08/12 02:00:06;;;;;;;6.43;2.77;;;19.80;99.90;;;;;;5096970;28;20204;-54
2023/08/12 02:02:31;;;;;;;3.43;3.13;;;19.80;99.90;;;;;;5103331;27;20290;-55
2023/08/12 02:04:57;;;;;;;3.63;3.40;;;19.80;99.90;;;;;;5101691;28;20989;-55
2023/08/12 02:11:34;;;;;;;3.37;2.90;;;19.80;99.90;;;;;;4964917;22;20362;-54
2023/08/12 02:14:00;;;;;;;3.47;3.17;;;19.80;99.90;;;;;;5108932;28;20830;-55
2023/08/12 02:16:26;;;;;;;5.13;3.03;;;19.80;99.90;;;;;;5118667;28;20289;-55
2023/08/12 02:18:52;;;;;;;3.23;3.03;;;19.80;99.90;;;;;;5120713;28;21000;-55
2023/08/12 02:21:17;;;;;;;3.77;3.47;;;19.80;99.90;;;;;;5121218;28;20223;-55
2023/08/12 02:23:44;;;;;;;3.27;3.03;;;19.80;99.90;;;;;;5121825;28;20608;-55
2023/08/12 02:26:09;;;;;;;4.33;3.57;;;19.70;99.90;;;;;;5121942;28;20256;-54
2023/08/12 02:28:35;;;;;;;3.37;2.93;;;19.70;99.90;;;;;;5121860;28;20202;-54
2023/08/12 02:31:01;;;;;;;4.23;3.77;;;19.80;99.90;;;;;;5122414;28;20189;-54
2023/08/12 02:33:27;;;;;;;3.57;3.27;;;19.80;99.90;;;;;;5120580;28;20226;-55
2023/08/12 02:35:54;;;;;;;5.90;3.77;;;19.80;99.90;;;;;;5121085;28;20227;-55
2023/08/12 02:38:20;;;;;;;3.63;3.00;;;19.70;99.90;;;;;;5115041;28;20739;-54
2023/08/12 02:40:49;;;;;;;4.03;3.30;;;19.70;99.90;;;;;;5105660;28;20703;-55
2023/08/12 02:43:15;;;;;;;3.67;3.37;;;19.60;99.90;;;;;;5116088;28;20949;-55
2023/08/12 02:45:41;;;;;;;3.37;3.07;;;19.60;99.90;;;;;;5117225;28;20822;-55
2023/08/12 02:48:06;;;;;;;4.40;3.50;;;19.60;99.90;;;;;;5120854;28;20197;-55
2023/08/12 02:50:32;;;;;;;4.23;3.17;;;19.60;99.90;;;;;;5121526;28;20195;-55
2023/08/12 02:52:57;;;;;;;3.70;3.40;;;19.60;99.90;;;;;;5106126;28;20203;-54
2023/08/12 02:55:23;;;;;;;8.40;3.50;;;19.50;99.90;;;;;;5120837;28;20198;-54
2023/08/12 02:57:48;;;;;;;4.43;3.23;;;19.60;99.90;;;;;;5117865;28;20568;-54
2023/08/12 03:00:14;;;;;;;3.67;3.40;;;19.60;99.90;;;;;;5112550;27;20264;-54
2023/08/12 03:02:43;;;;;;;3.57;3.27;;;19.50;99.90;;;;;;5123704;27;20226;-55
2023/08/12 03:05:09;;;;;;;4.80;3.43;;;19.60;99.90;;;;;;5125261;27;20194;-55
2023/08/12 03:07:34;;;;;;;3.80;3.50;;;19.50;99.90;;;;;;5114612;27;20188;-55
2023/08/12 03:10:00;;;;;;;4.00;3.20;;;19.50;99.90;;;;;;5119682;27;20226;-58
2023/08/12 03:12:25;;;;;;;4.90;3.77;;;19.60;99.90;;;;;;5124560;27;20304;-56
2023/08/12 03:14:51;;;;;;;3.63;3.33;;;19.60;99.90;;;;;;5125085;27;20271;-56
2023/08/12 03:17:16;;;;;;;4.20;3.07;;;19.60;99.90;;;;;;5124980;27;20244;-55
2023/08/12 03:19:42;;;;;;;4.47;4.07;;;19.50;99.90;;;;;;5104030;27;20214;-55
2023/08/12 03:22:07;;;;;;;4.13;3.57;;;19.50;99.90;;;;;;5125150;27;20258;-56
2023/08/12 03:24:33;;;;;;;8.03;3.80;;;19.40;99.90;;;;;;5120627;27;20199;-56
2023/08/12 03:26:59;;;;;;;5.27;3.37;;;19.40;99.90;;;;;;5119840;27;20193;-54
2023/08/12 03:29:24;;;;;;;3.60;3.30;;;19.40;99.90;;;;;;5124619;27;20215;-54
2023/08/12 03:31:49;;;;;;;7.80;4.20;;;19.40;99.90;;;;;;5122420;27;20341;-55
2023/08/12 03:34:15;;;;;;;4.50;3.70;;;19.30;99.90;;;;;;5106187;27;20201;-56
2023/08/12 03:36:41;;;;;;;3.93;3.43;;;19.30;99.90;;;;;;5125056;27;20220;-57
2023/08/12 03:39:06;;;;;;;5.13;4.07;;;19.20;99.90;;;;;;5124792;27;20201;-56
2023/08/12 03:41:32;;;;;;;4.73;3.80;;;19.30;99.90;;;;;;5108635;27;20274;-54
2023/08/12 03:43:58;;;;;;;3.87;3.33;;;19.20;99.90;;;;;;5120608;27;20185;-55
2023/08/12 03:46:23;;;;;;;4.80;3.63;;;19.20;99.90;;;;;;5112561;27;20198;-56
2023/08/12 03:48:49;;;;;;;4.30;3.67;;;19.20;99.90;;;;;;5118748;27;20189;-56
2023/08/12 03:51:14;;;;;;;9.13;4.07;;;19.20;99.90;;;;;;5121977;27;20750;-55
2023/08/12 03:53:40;;;;;;;4.77;3.50;;;19.20;99.90;;;;;;5124923;27;20194;-55
2023/08/12 03:56:05;;;;;;;4.90;3.93;;;19.20;99.90;;;;;;5118196;27;20637;-55
2023/08/12 03:58:31;;;;;;;4.97;3.47;;;19.20;99.90;;;;;;5123972;27;20222;-53
2023/08/12 04:00:56;;;;;;;4.30;4.00;;;19.20;99.90;;;;;;5123895;27;20779;-56
2023/08/12 04:03:22;;;;;;;4.67;4.33;;;19.20;99.90;;;;;;5121970;27;20294;-56
2023/08/12 04:05:52;;;;;;;4.30;3.90;;;19.10;99.90;;;;;;5113341;27;20180;-55
2023/08/12 04:08:19;;;;;;;4.73;4.23;;;19.20;99.90;;;;;;5120368;27;20190;-61
2023/08/12 04:10:47;;;;;;;8.70;4.47;;;19.00;99.90;;;;;;5122498;27;20186;-59
2023/08/12 04:13:13;;;;;;;4.20;3.80;;;19.10;99.90;;;;;;5122735;27;20258;-57
2023/08/12 04:15:38;;;;;;;3.77;3.40;;;19.10;99.90;;;;;;5121316;27;20222;-56
2023/08/12 04:18:04;;;;;;;3.90;3.60;;;19.10;99.90;;;;;;5114506;27;20247;-56
2023/08/12 04:20:30;;;;;;;7.40;4.07;;;19.10;99.90;;;;;;5122898;27;20834;-55
2023/08/12 04:22:55;;;;;;;4.50;4.10;;;19.00;99.90;;;;;;5113110;27;20671;-55
2023/08/12 04:25:22;;;;;;;4.23;3.83;;;19.00;99.90;;;;;;5093123;27;20190;-56
2023/08/12 04:27:49;;;;;;;8.83;4.40;;;19.10;99.90;;;;;;5117896;27;20278;-55
2023/08/12 04:30:16;;;;;;;5.23;4.03;;;19.00;99.90;;;;;;5121982;27;20605;-54
2023/08/12 04:32:41;;;;;;;4.10;3.67;;;19.00;99.90;;;;;;5121415;27;20200;-54
2023/08/12 04:35:07;;;;;;;4.90;4.53;;;19.00;99.90;;;;;;5123306;27;20191;-54
2023/08/12 04:37:32;;;;;;;6.47;3.77;;;19.00;99.90;;;;;;5123709;27;20205;-55
2023/08/12 04:39:58;;;;;;;4.20;3.80;;;19.10;99.90;;;;;;5108763;27;20219;-54
2023/08/12 04:42:24;;;;;;;4.67;3.60;;;19.10;99.90;;;;;;5120310;27;20607;-56
2023/08/12 04:44:49;;;;;;;5.37;4.27;;;19.10;99.90;;;;;;5102894;27;20741;-55
2023/08/12 04:47:15;;;;;;;4.77;3.70;;;19.10;99.90;;;;;;5102254;27;20194;-55
2023/08/12 04:49:41;;;;;;;7.87;4.00;;;19.20;99.90;;;;;;5119355;27;20668;-55
2023/08/12 04:52:07;;;;;;;3.73;3.43;;;19.20;99.90;;;;;;5123073;27;20190;-56
2023/08/12 04:54:32;;;;;;;7.60;4.00;;;19.20;99.90;;;;;;5111691;27;20203;-56
2023/08/12 04:56:59;;;;;;;5.03;3.37;;;19.30;99.90;;;;;;5109977;27;20876;-56
2023/08/12 04:59:25;;;;;;;3.60;3.40;;;19.30;99.90;;;;;;5123113;27;20181;-55
2023/08/12 05:01:50;;;;;;;5.90;3.83;;;19.40;99.90;;;;;;5120652;27;20645;-55
2023/08/12 05:04:15;;;;;;;5.40;3.37;;;19.50;99.90;;;;;;5122970;27;20183;-55
2023/08/12 05:06:41;;;;;;;5.57;3.40;;;19.50;99.90;;;;;;5118010;27;20219;-55
2023/08/12 05:09:06;;;;;;;4.30;3.80;;;19.60;99.90;;;;;;5101182;27;20196;-56
2023/08/12 05:11:32;;;;;;;3.70;3.33;;;19.60;99.90;;;;;;5108865;27;20203;-55
2023/08/12 05:13:58;;;;;;;4.80;3.63;;;19.70;99.90;;;;;;5122077;27;20480;-56
2023/08/12 05:16:23;;;;;;;3.60;3.30;;;19.80;99.90;;;;;;5122380;27;20295;-55
2023/08/12 05:18:48;;;;;;;8.27;3.70;;;19.80;99.90;;;;;;5122273;27;20233;-56
2023/08/12 05:21:14;;;;;;;3.70;3.40;;;19.90;99.90;;;;;;5122369;27;20631;-56
2023/08/12 05:23:39;;;;;;;4.33;3.33;;;19.90;99.90;;;;;;5109694;27;20204;-55
2023/08/12 05:26:05;;;;;;;4.53;3.27;;;20.00;99.90;;;;;;5101738;27;20191;-55
2023/08/12 05:28:30;;;;;;;4.60;4.20;;;20.00;99.90;;;;;;5117211;27;20189;-55
2023/08/12 05:30:56;;;;;;;4.10;3.63;;;20.10;99.90;;;;;;5121562;27;20196;-55
2023/08/12 05:33:22;;;;;;;4.43;3.73;;;20.10;99.90;;;;;;5120107;27;20255;-55
2023/08/12 05:35:48;;;;;;;4.23;3.40;;;20.30;99.90;;;;;;5122056;27;20299;-55
2023/08/12 05:38:13;;;;;;;3.90;3.50;;;20.20;99.90;;;;;;5122601;27;20198;-56
2023/08/12 05:40:39;;;;;;;4.47;3.10;;;20.30;99.90;;;;;;5122457;27;20207;-56
2023/08/12 05:43:04;;;;;;;3.67;3.30;;;20.50;99.90;;;;;;5121498;27;20188;-56
2023/08/12 05:45:30;;;;;;;4.07;3.67;;;20.60;99.90;;;;;;5115340;27;20196;-56
2023/08/12 05:47:56;;;;;;;3.70;3.40;;;20.60;99.90;;;;;;5122285;27;20231;-56
2023/08/12 05:50:21;;;;;;;3.93;3.40;;;20.70;99.90;;;;;;5112973;27;20197;-55
2023/08/12 05:52:46;;;;;;;4.17;3.27;;;20.80;99.90;;;;;;5113705;27;20290;-55
2023/08/12 05:55:12;;;;;;;5.53;4.10;;;20.80;99.90;;;;;;5122155;27;20192;-55
2023/08/12 05:57:37;;;;;;;3.03;2.83;;;20.80;99.90;;;;;;5121271;27;20212;-56
2023/08/12 06:00:03;;;;;;;4.83;3.20;;;20.80;99.90;;;;;;5121813;27;20980;-56
2023/08/12 06:02:29;;;;;;;6.90;3.33;;;20.80;99.90;;;;;;5117289;27;20224;-55
2023/08/12 06:04:54;;;;;;;3.83;2.93;;;20.80;99.90;;;;;;5122101;27;20274;-55
2023/08/12 06:07:20;;;;;;;4.33;3.53;;;20.80;99.90;;;;;;5109094;27;20196;-54
2023/08/12 06:09:45;;;;;;;3.77;3.40;;;20.90;99.90;;;;;;5119968;27;20195;-55
2023/08/12 06:12:11;;;;;;;5.13;3.77;;;21.00;99.90;;;;;;5117423;27;20224;-56
2023/08/12 06:14:39;;;;;;;5.20;3.17;;;21.10;99.90;;;;;;5117072;28;20654;-56
2023/08/12 06:17:05;;;;;;;5.23;3.83;;;21.20;99.90;;;;;;5117348;28;20219;-55
2023/08/12 06:19:31;;;;;;;5.30;3.50;;;21.20;99.90;;;;;;5121743;28;20295;-58
2023/08/12 06:21:56;;;;;;;3.37;3.17;;;21.20;99.90;;;;;;5095551;28;20288;-58
2023/08/12 06:24:22;;;;;;;3.67;3.40;;;21.30;99.90;;;;;;5113752;28;20205;-56
2023/08/12 06:26:47;;;;;;;3.97;3.60;;;21.30;99.90;;;;;;5118654;28;20191;-56
2023/08/12 06:29:13;;;;;;;7.47;3.30;;;21.40;99.90;;;;;;5122189;28;20685;-56
2023/08/12 06:31:39;;;;;;;3.53;3.20;;;21.40;99.90;;;;;;5122429;28;20184;-56
2023/08/12 06:34:04;;;;;;;3.60;3.30;;;21.50;99.90;;;;;;5119925;27;20685;-56
2023/08/12 06:36:30;;;;;;;4.47;3.80;;;21.60;99.90;;;;;;5125789;27;20194;-55
2023/08/12 06:38:55;;;;;;;3.80;3.50;;;21.70;99.90;;;;;;5122339;27;20705;-56
2023/08/12 06:41:21;;;;;;;3.53;3.23;;;21.70;99.90;;;;;;5125171;27;20212;-57
2023/08/12 06:43:46;;;;;;;4.77;3.10;;;21.70;99.90;;;;;;5122262;27;20580;-56
2023/08/12 06:46:12;;;;;;;3.90;3.50;;;21.80;99.90;;;;;;5125377;27;20197;-58
2023/08/12 06:48:37;;;;;;;3.20;3.00;;;21.80;99.90;;;;;;5125330;27;20200;-56
2023/08/12 06:51:10;;;;;;;4.40;3.40;;;21.90;99.90;;;;;;5124926;27;20203;-62
2023/08/12 06:53:35;;;;;;;4.93;3.47;;;21.90;99.90;;;;;;5124947;27;20180;-59
2023/08/12 06:56:01;;;;;;;3.70;3.40;;;22.00;99.90;;;;;;5124604;27;20200;-57
2023/08/12 06:58:27;;;;;;;4.43;3.80;;;22.00;99.90;;;;;;5120621;27;20192;-57
2023/08/12 07:00:53;;;;;;;6.87;3.90;;;22.10;99.90;;;;;;5124486;27;20607;-57
2023/08/12 07:03:18;;;;;;;4.57;3.27;;;21.90;99.90;;;;;;5121993;27;20728;-56
2023/08/12 07:05:44;;;;;;;11.53;3.60;;;21.90;99.90;;;;;;5124477;27;20336;-59
2023/08/12 07:08:09;;;;;;;6.47;3.60;;;21.90;99.90;;;;;;5124532;27;20684;-59
2023/08/12 07:10:38;;;;;;;6.80;3.92;;;21.90;99.90;;;;;;5123979;27;20198;-58
2023/08/12 07:13:04;;;;;;;5.00;3.30;;;21.90;99.90;;;;;;5123965;27;20211;-57
2023/08/12 07:15:29;;;;;;;5.00;4.10;;;22.00;99.90;;;;;;5123620;27;20199;-56
2023/08/12 07:17:55;;;;;;;4.23;3.83;;;22.10;99.90;;;;;;5124364;27;20197;-57
2023/08/12 07:20:21;;;;;;;5.38;3.15;;;22.20;99.90;;;;;;5106794;27;20204;-59
2023/08/12 07:22:46;;;;;;;6.43;3.80;;;22.30;99.90;;;;;;5105709;27;20215;-57
2023/08/12 07:25:12;;;;;;;4.13;3.73;;;22.50;99.90;;;;;;5124322;27;20267;-57
2023/08/12 07:27:37;;;;;;;3.40;3.10;;;22.70;99.90;;;;;;5123914;27;20180;-58
2023/08/12 07:30:03;;;;;;;4.68;3.42;;;22.60;99.90;;;;;;5124241;27;20198;-60
2023/08/12 07:32:28;;;;;;;6.03;3.85;;;22.70;99.90;;;;;;5122392;27;20220;-56
2023/08/12 07:34:54;;;;;;;3.70;3.40;;;22.90;99.90;;;;;;5124700;27;20256;-56
2023/08/12 07:37:19;;;;;;;4.65;3.30;;;22.90;99.90;;;;;;5122974;27;20563;-56
2023/08/12 07:39:45;;;;;;;4.28;3.88;;;23.00;99.90;;;;;;5105454;27;20271;-53
2023/08/12 07:42:11;;;;;;;5.57;3.70;;;23.00;99.90;;;;;;5123476;27;20208;-60
2023/08/12 07:44:36;;;;;;;9.50;3.90;;;23.00;99.90;;;;;;5122629;27;20168;-58
2023/08/12 07:47:02;;;;;;;4.15;3.35;;;23.10;99.90;;;;;;5119883;27;20951;-58
2023/08/12 07:49:27;;;;;;;4.10;3.78;;;23.20;99.90;;;;;;5121794;27;20207;-58
2023/08/12 07:51:53;;;;;;;3.17;2.97;;;23.10;99.90;;;;;;5124308;27;20720;-57
2023/08/12 07:54:18;;;;;;;5.23;4.27;;;23.20;99.90;;;;;;5123591;27;20185;-58
2023/08/12 07:56:44;;;;;;;4.20;3.80;;;23.20;99.90;;;;;;5139641;22;20309;-58
2023/08/12 07:59:10;;;;;;;7.57;4.18;;;23.20;99.90;;;;;;5076462;28;20181;-59
2023/08/12 08:01:35;;;;;;;4.47;3.60;;;23.20;99.90;;;;;;5083998;28;20220;-54
2023/08/12 08:04:01;;;;;;;4.95;4.18;;;23.30;99.90;;;;;;5085642;28;20200;-56
2023/08/12 08:06:28;;;;;;;4.40;3.45;;;23.20;99.90;;;;;;5088489;28;20209;-54
2023/08/12 08:08:55;;;;;;;6.53;4.20;;;23.20;99.90;;;;;;5071035;28;20292;-57
2023/08/12 08:11:21;;;;;;;5.40;4.18;;;23.00;99.90;;;;;;5091870;28;20272;-57
2023/08/12 08:13:46;;;;;;;9.40;4.45;;;23.20;99.90;;;;;;5090617;28;20736;-53
2023/08/12 08:16:12;;;;;;;4.07;3.65;;;23.30;99.90;;;;;;5086410;28;21081;-56
2023/08/12 08:18:37;;;;;;;5.78;4.20;;;23.20;99.90;;;;;;5096439;28;20229;-58
2023/08/12 08:21:03;;;;;;;4.63;3.28;;;23.20;99.90;;;;;;5099496;28;20766;-58
2023/08/12 08:23:29;;;;;;;4.20;3.88;;;23.10;99.90;;;;;;5073970;28;20205;-64
2023/08/12 08:25:54;;;;;;;4.93;2.78;;;23.10;99.90;;;;;;5098198;28;20239;-61
2023/08/12 08:28:19;;;;;;;3.70;3.38;;;22.90;99.90;;;;;;5102813;28;20262;-56
2023/08/12 08:30:45;;;;;;;4.40;4.00;;;22.90;99.90;;;;;;5101841;28;20353;-57
2023/08/12 08:33:10;;;;;;;4.60;4.18;;;22.90;99.90;;;;;;5094391;28;20184;-58
2023/08/12 08:35:36;;;;;;;6.47;4.10;;;22.90;99.90;;;;;;5099382;28;20264;-60
2023/08/12 08:38:01;;;;;;;5.40;3.42;;;23.00;99.90;;;;;;5083129;28;20434;-59
2023/08/12 08:40:27;;;;;;;4.82;3.60;;;22.90;99.90;;;;;;5101300;28;20678;-61
2023/08/12 08:42:53;;;;;;;3.83;3.22;;;22.90;99.90;;;;;;5092004;28;20239;-59
2023/08/12 08:45:21;;;;;;;4.67;4.20;;;23.00;99.90;;;;;;5081782;28;20208;-62
2023/08/12 08:47:47;;;;;;;5.28;4.22;;;23.00;99.90;;;;;;5091995;28;20193;-60
2023/08/12 08:50:13;;;;;;;5.65;3.97;;;23.20;99.90;;;;;;5090711;28;20201;-59
2023/08/12 08:52:39;;;;;;;6.95;4.90;;;23.30;99.90;;;;;;5093056;28;20189;-59
2023/08/12 08:55:05;;;;;;;4.55;4.15;;;23.20;99.90;;;;;;5082295;28;20190;-58
2023/08/12 08:57:32;;;;;;;6.63;4.25;;;23.30;99.90;;;;;;5096070;28;20221;-57
2023/08/12 08:59:57;;;;;;;4.45;4.05;;;23.30;99.90;;;;;;5101682;28;20651;-60
2023/08/12 09:02:23;;;;;;;7.30;5.47;;;23.30;99.90;;;;;;5098434;28;20212;-53
2023/08/12 09:04:50;;;;;;;5.85;3.83;;;23.30;99.90;;;;;;5098245;28;20227;-52
2023/08/12 09:07:15;;;;;;;5.63;5.10;;;23.40;99.90;;;;;;5100815;28;20929;-57
2023/08/12 09:09:46;;;;;;;7.43;4.55;;;23.40;99.90;;;;;;5100053;28;20304;-56
2023/08/12 09:12:16;;;;;;;4.25;3.85;;;23.50;99.90;;;;;;5101757;28;20181;-56
2023/08/12 09:14:42;;;;;;;5.40;4.20;;;23.40;99.90;;;;;;5101521;28;20926;-55
2023/08/12 09:17:08;;;;;;;7.07;4.38;;;23.20;99.90;;;;;;5100540;28;20192;-56
2023/08/12 09:19:33;;;;;;;3.83;3.45;;;23.30;99.90;;;;;;5099517;28;20210;-58
2023/08/12 09:21:59;;;;;;;2.97;2.78;;;23.30;99.90;;;;;;5099318;28;20244;-53
2023/08/12 09:24:26;;;;;;;4.38;3.95;;;23.30;99.90;;;;;;5102213;28;20215;-54
2023/08/12 09:26:52;;;;;;;6.97;3.83;;;23.40;99.90;;;;;;5101904;28;20249;-54
2023/08/12 09:29:21;;;;;;;7.03;3.92;;;23.50;99.90;;;;;;5100523;28;20193;-62
2023/08/12 09:31:47;;;;;;;4.45;3.55;;;23.50;99.90;;;;;;5101424;28;20200;-58
2023/08/12 09:34:12;;;;;;;4.32;3.92;;;23.40;99.90;;;;;;5095870;28;20196;-58
2023/08/12 09:36:38;;;;;;;3.33;3.03;;;23.50;99.90;;;;;;5096847;28;20559;-58
2023/08/12 09:39:10;;;;;;;4.38;3.95;;;23.60;99.90;;;;;;5082710;28;20180;-58
2023/08/12 09:41:38;;;;;;;4.63;4.20;;;23.60;99.90;;;;;;5078548;28;20209;-59
2023/08/12 09:44:04;;;;;;;4.85;3.90;;;23.70;99.90;;;;;;5098872;28;20185;-60
2023/08/12 09:46:33;;;;;;;4.82;4.18;;;23.70;99.90;;;;;;5079506;28;20742;-59
2023/08/12 09:48:58;;;;;;;3.47;3.17;;;23.70;99.90;;;;;;5101285;28;20196;-65
2023/08/12 09:51:24;;;;;;;5.25;4.45;;;23.60;99.90;;;;;;5095142;28;20199;-58
2023/08/12 09:53:52;;;;;;;4.80;3.72;;;23.70;99.90;;;;;;5072467;28;20200;-62
2023/08/12 09:56:20;;;;;;;5.43;4.90;;;23.80;99.90;;;;;;5081740;28;20234;-58
2023/08/12 09:58:48;;;;;;;5.75;5.15;;;23.80;99.90;;;;;;5097815;28;20188;-58
2023/08/12 10:01:20;;;;;;;3.90;3.60;;;23.80;99.90;;;;;;5099088;28;20236;-58
2023/08/12 10:03:51;;;;;;;3.88;3.58;;;23.90;99.90;;;;;;5096290;28;20205;-58
2023/08/12 10:06:17;;;;;;;8.73;4.20;;;23.80;99.90;;;;;;5099912;28;20275;-59
2023/08/12 10:08:45;;;;;;;5.63;3.83;;;23.80;99.90;;;;;;5098405;28;20558;-58
2023/08/12 10:11:12;;;;;;;3.85;3.00;;;23.80;99.90;;;;;;5098989;28;20204;-59
2023/08/12 10:13:38;;;;;;;6.38;4.38;;;23.80;99.90;;;;;;5099695;28;20770;-58
2023/08/12 10:16:04;;;;;;;4.65;4.25;;;24.00;99.90;;;;;;5096819;28;20317;-54
2023/08/12 10:18:31;;;;;;;4.57;4.10;;;23.80;99.90;;;;;;5100846;28;20518;-53
2023/08/12 10:20:58;;;;;;;5.50;4.25;;;23.90;99.90;;;;;;5101168;28;20304;-59
2023/08/12 10:23:24;;;;;;;5.60;3.90;;;24.00;99.90;;;;;;5098335;28;20195;-54
2023/08/12 10:25:54;;;;;;;4.20;3.80;;;24.00;99.90;;;;;;5098893;28;20185;-55
2023/08/12 10:28:20;;;;;;;8.45;4.47;;;24.00;99.90;;;;;;5100733;28;20237;-54
2023/08/12 10:30:46;;;;;;;5.05;3.85;;;24.00;99.90;;;;;;5098334;28;20290;-63
2023/08/12 10:33:16;;;;;;;5.28;3.58;;;24.20;99.90;;;;;;5097676;28;20201;-57
2023/08/12 10:35:47;;;;;;;6.03;4.00;;;24.30;99.90;;;;;;5083263;28;20177;-56
2023/08/12 10:38:19;;;;;;;5.03;4.40;;;24.40;99.90;;;;;;5079553;28;21677;-62
2023/08/12 10:40:45;;;;;;;5.57;4.88;;;24.40;99.90;;;;;;5098829;28;20177;-59
2023/08/12 10:43:14;;;;;;;5.15;4.75;;;24.50;99.90;;;;;;5099214;28;20195;-58
2023/08/12 10:45:44;;;;;;;5.60;4.30;;;24.70;99.90;;;;;;5100408;28;20832;-59
2023/08/12 10:48:18;;;;;;;4.78;4.38;;;25.00;99.90;;;;;;5098162;28;20189;-60
2023/08/12 10:50:46;;;;;;;4.93;4.07;;;25.20;99.90;;;;;;5100289;28;20211;-59
2023/08/12 10:53:35;;;;;;;4.72;4.38;;;25.30;99.90;;;;;;5088262;28;20191;-64
2023/08/12 10:56:03;;;;;;;10.15;5.13;;;25.40;99.90;;;;;;5087176;28;20190;-59
2023/08/12 10:58:33;;;;;;;5.57;5.03;;;25.50;99.90;;;;;;5090906;28;20230;-59
2023/08/12 11:00:59;;;;;;;5.40;4.25;;;25.50;99.90;;;;;;5094944;28;20268;-60
2023/08/12 11:03:25;;;;;;;5.57;4.63;;;25.40;99.90;;;;;;5085951;28;20638;-59
2023/08/12 11:05:50;;;;;;;5.55;5.00;;;25.50;99.90;;;;;;5089952;28;20179;-59
2023/08/12 11:08:16;;;;;;;6.88;4.65;;;25.60;99.90;;;;;;5094763;28;20210;-60
2023/08/12 11:10:43;;;;;;;4.75;4.38;;;25.60;99.90;;;;;;5098431;28;20210;-60
2023/08/12 11:13:08;;;;;;;6.22;5.72;;;25.60;99.90;;;;;;5072275;28;20564;-60
2023/08/12 11:15:38;;;;;;;5.70;4.88;;;25.60;99.90;;;;;;5090276;28;20243;-58
2023/08/12 11:18:06;;;;;;;5.63;4.80;;;25.60;99.90;;;;;;5094391;28;20218;-59
2023/08/12 11:20:33;;;;;;;5.57;5.18;;;25.80;99.90;;;;;;5087154;28;20769;-59
2023/08/12 11:22:59;;;;;;;4.68;4.25;;;25.80;99.90;;;;;;5085761;28;20228;-59
2023/08/12 11:25:25;;;;;;;4.78;4.47;;;25.90;99.90;;;;;;5104255;28;20191;-59
2023/08/12 11:27:51;;;;;;;3.95;3.65;;;25.90;99.90;;;;;;5101785;28;20194;-59
2023/08/12 11:30:20;;;;;;;7.05;4.57;;;25.70;99.90;;;;;;5103237;28;20206;-59
2023/08/12 11:32:48;;;;;;;9.40;4.30;;;25.70;99.90;;;;;;5084634;28;20266;-59
2023/08/12 11:35:15;;;;;;;4.43;4.10;;;25.80;99.90;;;;;;5105027;28;20191;-59
2023/08/12 11:37:43;;;;;;;4.70;4.30;;;25.70;99.90;;;;;;5089462;28;20204;-60
2023/08/12 11:40:10;;;;;;;9.85;4.43;;;25.60;99.90;;;;;;5104547;28;20196;-59
2023/08/12 11:42:37;;;;;;;6.43;4.35;;;25.50;99.90;;;;;;5079356;28;20210;-59
2023/08/12 11:45:06;;;;;;;4.22;3.88;;;25.50;99.90;;;;;;5100323;28;20195;-59
2023/08/12 11:47:33;;;;;;;5.03;4.63;;;25.50;99.90;;;;;;5100920;28;20298;-60
2023/08/12 11:50:01;;;;;;;4.90;4.40;;;25.30;99.90;;;;;;5096560;28;20213;-59
2023/08/12 11:52:27;;;;;;;3.80;3.60;;;25.30;99.90;;;;;;5089506;28;20192;-58
2023/08/12 11:54:53;;;;;;;4.25;3.85;;;25.30;99.90;;;;;;5103539;28;20209;-59
2023/08/12 11:57:18;;;;;;;4.90;4.47;;;25.30;99.90;;;;;;5074518;28;20598;-59
2023/08/12 11:59:44;;;;;;;6.60;4.10;;;25.30;99.90;;;;;;5089796;28;20687;-59
2023/08/12 12:02:10;;;;;;;4.55;3.97;;;25.30;99.90;;;;;;5100965;28;20671;-58
2023/08/12 12:04:36;;;;;;;7.60;4.47;;;25.10;99.90;;;;;;5099831;28;20218;-59
2023/08/12 12:07:06;;;;;;;5.15;4.65;;;25.00;99.90;;;;;;5089514;28;20201;-59
2023/08/12 12:09:32;;;;;;;4.57;4.22;;;24.70;99.90;;;;;;5091576;28;20204;-59
2023/08/12 12:11:57;;;;;;;7.00;4.60;;;24.50;99.90;;;;;;5095138;28;20182;-59
2023/08/12 12:14:25;;;;;;;5.38;4.88;;;24.60;99.90;;;;;;5098338;28;20484;-59
2023/08/12 12:16:50;;;;;;;5.93;4.68;;;24.70;99.90;;;;;;5098026;28;20268;-59
2023/08/12 12:19:22;;;;;;;5.13;4.63;;;24.70;99.90;;;;;;5093170;28;20618;-61
2023/08/12 12:21:51;;;;;;;5.13;4.72;;;24.70;99.90;;;;;;5100451;28;20217;-59
2023/08/12 12:24:18;;;;;;;5.38;4.93;;;24.50;99.90;;;;;;5104105;28;20277;-59
2023/08/12 12:26:44;;;;;;;5.18;4.70;;;24.50;99.90;;;;;;5100597;28;20242;-59
2023/08/12 12:29:14;;;;;;;4.55;4.13;;;24.50;99.90;;;;;;5084812;28;20200;-58
2023/08/12 12:31:41;;;;;;;5.03;4.57;;;24.40;99.90;;;;;;5099940;28;20178;-59
2023/08/12 12:34:07;;;;;;;5.22;4.75;;;24.30;99.90;;;;;;5095469;28;20247;-60
2023/08/12 12:36:35;;;;;;;6.00;4.57;;;24.20;99.90;;;;;;5102832;28;20185;-54
2023/08/12 12:39:01;;;;;;;5.53;5.13;;;24.20;99.90;;;;;;5086068;28;20203;-55
2023/08/12 12:41:27;;;;;;;6.15;5.18;;;24.20;99.90;;;;;;5082850;28;20634;-58
2023/08/12 12:43:53;;;;;;;6.03;5.53;;;24.40;99.90;;;;;;5083421;28;20286;-56
2023/08/12 12:46:18;;;;;;;5.32;4.47;;;24.50;99.90;;;;;;5088601;28;20199;-60
2023/08/12 12:48:45;;;;;;;5.15;4.18;;;24.60;99.90;;;;;;5083645;28;20198;-57